Time;durP1;ratioP1;P1;durP2;ratioP2;P2;SDS_P1;SDS_P2;PMS_P1;PMS_P2;Temp;Humidity;BMP_temperature;BMP_pressure;BME280_temperature;BME280_humidity;BME280_pressure;Samples;Min_cycle;Max_cycle;Signal;HPM_P1;HPM_P2
2024/02/03 00:00:03;;;;;;;9.50;8.48;;;;;;;7.55;79.92;99149.25;5073541;28;20024;-73
2024/02/03 00:02:29;;;;;;;11.15;9.38;;;;;;;7.72;80.01;99185.41;5073308;28;20120;-74
2024/02/03 00:04:54;;;;;;;10.82;9.20;;;;;;;7.74;80.78;99177.16;5058303;28;20074;-71
2024/02/03 00:07:20;;;;;;;9.93;8.40;;;;;;;7.60;80.91;99170.94;5071626;28;20032;-72
2024/02/03 00:09:47;;;;;;;9.75;8.75;;;;;;;7.61;80.61;99176.06;5075172;28;20043;-73
2024/02/03 00:12:13;;;;;;;11.43;9.55;;;;;;;7.70;81.02;99182.09;5074726;28;20373;-71
2024/02/03 00:14:39;;;;;;;10.40;9.38;;;;;;;7.60;80.28;99168.25;5074581;28;20496;-72
2024/02/03 00:17:05;;;;;;;10.77;9.27;;;;;;;7.68;81.10;99178.78;5075688;28;20476;-71
2024/02/03 00:19:30;;;;;;;13.20;10.25;;;;;;;7.53;81.01;99145.97;5076057;28;20546;-72
2024/02/03 00:21:57;;;;;;;10.10;9.10;;;;;;;7.69;80.85;99177.75;5073716;28;20032;-71
2024/02/03 00:24:23;;;;;;;13.73;10.27;;;;;;;7.58;81.39;99164.94;5071702;28;20024;-72
2024/02/03 00:26:48;;;;;;;12.77;10.05;;;;;;;7.66;81.37;99172.78;5073618;28;20039;-72
2024/02/03 00:29:14;;;;;;;13.48;9.98;;;;;;;7.62;81.56;99160.81;5072867;28;20491;-71
2024/02/03 00:31:39;;;;;;;10.77;9.68;;;;;;;7.58;80.65;99168.44;5072573;28;20047;-72
2024/02/03 00:34:04;;;;;;;13.55;10.68;;;;;;;7.69;80.65;99180.44;5070710;28;20051;-73
2024/02/03 00:36:30;;;;;;;12.63;10.38;;;;;;;7.69;80.60;99180.44;5071325;28;20111;-73
2024/02/03 00:38:56;;;;;;;14.30;10.27;;;;;;;7.66;81.59;99173.63;5072112;28;20431;-72
2024/02/03 00:41:21;;;;;;;12.18;10.38;;;;;;;7.70;80.86;99179.41;5072304;28;20036;-71
2024/02/03 00:43:46;;;;;;;13.15;10.35;;;;;;;7.66;80.83;99172.78;5071894;28;20126;-72
2024/02/03 00:46:12;;;;;;;13.05;11.07;;;;;;;7.66;81.68;99167.44;5071043;28;20082;-72
2024/02/03 00:48:38;;;;;;;12.13;10.77;;;;;;;7.71;81.24;99173.00;5072041;28;20047;-71
2024/02/03 00:51:11;;;;;;;11.63;10.13;;;;;;;7.60;81.14;99152.16;5072287;28;20106;-71
2024/02/03 00:53:37;;;;;;;11.48;10.27;;;;;;;7.66;81.32;99162.06;5066005;28;20111;-71
2024/02/03 00:56:03;;;;;;;11.80;10.57;;;;;;;7.75;81.23;99165.41;5071021;28;20108;-73
2024/02/03 00:58:28;;;;;;;13.07;10.52;;;;;;;7.70;80.78;99163.34;5071819;28;20036;-73
2024/02/03 01:00:54;;;;;;;12.02;10.05;;;;;;;7.68;81.73;99176.09;5053511;28;20153;-72
2024/02/03 01:03:19;;;;;;;11.95;10.27;;;;;;;7.59;80.94;99161.22;5071422;28;20036;-73
2024/02/03 01:05:45;;;;;;;11.80;10.38;;;;;;;7.68;82.23;99172.59;5071609;28;20028;-73
2024/02/03 01:08:10;;;;;;;12.48;10.52;;;;;;;7.62;81.87;99171.56;5071641;28;20103;-73
2024/02/03 01:10:35;;;;;;;12.23;10.85;;;;;;;7.73;81.76;99188.88;5070297;28;20016;-73
2024/02/03 01:13:01;;;;;;;15.23;11.48;;;;;;;7.68;81.94;99187.66;5071503;28;20032;-73
2024/02/03 01:15:27;;;;;;;13.68;11.20;;;;;;;7.76;81.18;99199.22;5071699;28;20506;-73
2024/02/03 01:17:52;;;;;;;12.98;10.88;;;;;;;7.67;81.98;99201.25;5070382;28;20047;-73
2024/02/03 01:20:18;;;;;;;13.35;11.35;;;;;;;7.75;81.93;99213.66;5070217;28;20028;-72
2024/02/03 01:22:43;;;;;;;12.07;10.77;;;;;;;7.63;82.12;99200.03;5053295;28;20639;-74
2024/02/03 01:25:09;;;;;;;13.32;11.68;;;;;;;7.65;82.12;99212.16;5070350;28;20514;-73
2024/02/03 01:27:34;;;;;;;12.70;10.85;;;;;;;7.66;81.78;99211.16;5050721;28;20044;-73
2024/02/03 01:30:00;;;;;;;13.70;11.40;;;;;;;7.76;82.05;99221.50;5071431;28;20472;-73
2024/02/03 01:32:25;;;;;;;12.73;11.35;;;;;;;7.77;81.53;99220.47;5071425;28;20052;-73
2024/02/03 01:34:50;;;;;;;13.15;11.75;;;;;;;7.74;81.85;99233.44;5069857;28;20028;-72
2024/02/03 01:37:16;;;;;;;13.70;12.00;;;;;;;7.71;81.68;99218.59;5071442;28;20522;-73
2024/02/03 01:39:41;;;;;;;14.07;11.68;;;;;;;7.60;82.26;99192.38;5065617;28;20025;-73
2024/02/03 01:42:07;;;;;;;12.82;11.52;;;;;;;7.69;81.58;99188.47;5052648;28;20068;-73
2024/02/03 01:44:32;;;;;;;12.63;10.90;;;;;;;7.76;82.65;99210.78;5067812;28;20021;-69
2024/02/03 01:46:59;;;;;;;13.35;10.52;;;;;;;7.63;82.78;99194.66;5050955;28;20485;-71
2024/02/03 01:49:26;;;;;;;14.95;12.18;;;;;;;7.83;82.36;99205.44;5068381;28;20086;-72
2024/02/03 01:51:52;;;;;;;13.93;11.68;;;;;;;7.81;82.54;99208.31;5071127;28;20036;-71
2024/02/03 01:54:18;;;;;;;13.13;11.68;;;;;;;7.63;82.33;99189.31;5070986;28;20023;-71
2024/02/03 01:56:44;;;;;;;13.50;11.80;;;;;;;7.75;82.09;99209.09;5051166;28;20057;-71
2024/02/03 01:59:09;;;;;;;14.35;12.15;;;;;;;7.68;82.31;99203.72;5069932;28;20091;-71
2024/02/03 02:01:35;;;;;;;13.93;12.43;;;;;;;7.58;82.56;99175.66;5070010;28;20040;-70
2024/02/03 02:04:19;;;;;;;15.45;13.07;;;;;;;7.63;82.62;99190.09;5070782;28;20117;-73
2024/02/03 02:06:45;;;;;;;14.82;11.95;;;;;;;7.78;82.89;99199.84;5069641;28;20033;-70
2024/02/03 02:09:18;;;;;;;16.05;11.90;;;;;;;7.79;82.48;99199.66;5069611;28;20068;-72
2024/02/03 02:11:44;;;;;;;14.90;12.10;;;;;;;7.68;83.10;99191.38;5070897;28;20029;-72
2024/02/03 02:14:09;;;;;;;15.35;12.57;;;;;;;7.76;83.16;99204.59;5069457;28;20581;-72
2024/02/03 02:16:35;;;;;;;14.45;12.38;;;;;;;7.70;82.87;99187.47;5070594;28;20529;-73
2024/02/03 02:19:00;;;;;;;13.80;12.20;;;;;;;7.74;82.96;99195.91;5069518;28;20545;-72
2024/02/03 02:21:26;;;;;;;16.08;12.65;;;;;;;7.67;83.45;99198.59;5070674;28;20028;-70
2024/02/03 02:23:52;;;;;;;15.98;12.30;;;;;;;7.76;83.44;99204.59;5070619;28;20024;-69
2024/02/03 02:26:18;;;;;;;16.10;12.45;;;;;;;7.68;83.19;99204.78;5070785;28;20064;-70
2024/02/03 02:28:43;;;;;;;14.43;12.13;;;;;;;7.68;83.02;99197.53;5070672;28;20065;-71
2024/02/03 02:31:09;;;;;;;14.75;12.82;;;;;;;7.72;83.00;99192.63;5070690;28;20636;-72
2024/02/03 02:33:34;;;;;;;15.20;12.60;;;;;;;7.71;83.06;99202.50;5070273;28;20404;-73
2024/02/03 02:36:00;;;;;;;14.95;12.05;;;;;;;7.70;83.79;99200.88;5051101;28;20059;-71
2024/02/03 02:38:25;;;;;;;14.93;12.65;;;;;;;7.67;83.27;99203.94;5070526;28;20109;-73
2024/02/03 02:40:50;;;;;;;16.25;11.77;;;;;;;7.59;83.67;99202.25;5072186;28;20040;-72
2024/02/03 02:43:16;;;;;;;18.45;13.30;;;;;;;7.69;83.58;99199.22;5071825;28;20074;-72
2024/02/03 02:45:41;;;;;;;15.50;12.07;;;;;;;7.78;83.44;99219.44;5071191;28;20048;-69
2024/02/03 02:48:07;;;;;;;15.23;11.18;;;;;;;7.70;83.30;99195.50;5070975;28;20017;-73
2024/02/03 02:50:33;;;;;;;15.10;12.15;;;;;;;7.72;83.07;99201.50;5070512;28;20543;-69
2024/02/03 02:52:59;;;;;;;15.85;12.02;;;;;;;7.66;83.90;99200.44;5059227;28;20102;-73
2024/02/03 02:55:24;;;;;;;15.52;12.50;;;;;;;7.64;83.27;99188.25;5072295;28;20111;-73
2024/02/03 02:57:49;;;;;;;15.88;12.32;;;;;;;7.64;83.40;99190.94;5074951;28;20047;-73
2024/02/03 03:00:15;;;;;;;14.75;11.57;;;;;;;7.63;83.62;99198.13;5041528;28;20062;-74
2024/02/03 03:02:41;;;;;;;14.23;11.40;;;;;;;7.65;83.58;99197.97;5075704;28;20043;-72
2024/02/03 03:05:11;;;;;;;15.35;11.68;;;;;;;7.65;83.41;99179.19;5071387;28;20041;-71
2024/02/03 03:07:38;;;;;;;13.95;11.52;;;;;;;7.75;83.45;99201.06;5073394;28;20400;-70
2024/02/03 03:10:04;;;;;;;13.93;11.57;;;;;;;7.75;83.75;99198.38;5073456;28;20482;-70
2024/02/03 03:12:30;;;;;;;14.65;11.88;;;;;;;7.77;83.78;99204.38;5074301;28;20116;-70
2024/02/03 03:14:55;;;;;;;13.43;12.02;;;;;;;7.76;83.62;99194.69;5074525;28;20021;-69
2024/02/03 03:17:21;;;;;;;16.17;12.10;;;;;;;7.77;83.19;99201.69;5036530;28;20033;-71
2024/02/03 03:19:46;;;;;;;13.77;11.77;;;;;;;7.77;83.88;99200.88;5052047;28;20052;-70
2024/02/03 03:22:12;;;;;;;14.18;11.77;;;;;;;7.77;83.88;99208.94;5058832;28;20074;-70
2024/02/03 03:24:37;;;;;;;14.10;11.60;;;;;;;7.83;82.60;99206.25;5076301;28;20023;-71
2024/02/03 03:27:03;;;;;;;13.23;11.25;;;;;;;7.80;83.52;99214.69;5073220;28;20047;-70
2024/02/03 03:29:28;;;;;;;14.40;11.55;;;;;;;7.69;83.67;99207.25;5074444;28;20020;-71
2024/02/03 03:31:54;;;;;;;14.85;11.77;;;;;;;7.75;83.83;99213.66;5074357;28;20112;-70
2024/02/03 03:34:19;;;;;;;16.10;12.45;;;;;;;7.75;83.66;99208.31;5073972;28;20400;-70
2024/02/03 03:36:44;;;;;;;15.65;11.85;;;;;;;7.69;83.93;99204.56;5074217;28;20044;-69
2024/02/03 03:39:10;;;;;;;16.30;12.35;;;;;;;7.77;83.40;99201.69;5073997;28;20154;-69
2024/02/03 03:41:35;;;;;;;16.48;12.70;;;;;;;7.49;84.41;99174.19;5074606;28;20404;-71
2024/02/03 03:44:01;;;;;;;17.15;12.73;;;;;;;7.76;83.67;99210.78;5074506;28;20101;-73
2024/02/03 03:46:26;;;;;;;15.27;12.43;;;;;;;7.81;83.64;99215.53;5073884;28;20036;-72
2024/02/03 03:48:52;;;;;;;17.55;12.52;;;;;;;7.54;85.02;99217.28;5075007;28;20021;-72
2024/02/03 03:51:17;;;;;;;16.67;13.13;;;;;;;7.72;84.45;99220.25;5073478;28;20037;-71
2024/02/03 03:53:42;;;;;;;14.25;12.27;;;;;;;7.66;84.19;99215.69;5073688;28;20017;-70
2024/02/03 03:56:10;;;;;;;13.93;11.63;;;;;;;7.63;84.83;99230.31;5074058;28;20448;-70
2024/02/03 03:58:35;;;;;;;14.15;11.73;;;;;;;7.71;83.97;99223.97;5036721;28;20162;-71
2024/02/03 04:01:01;;;;;;;13.90;11.68;;;;;;;7.69;84.13;99226.00;5073936;28;20139;-69
2024/02/03 04:03:29;;;;;;;14.02;12.52;;;;;;;7.74;83.54;99223.56;5071597;28;20031;-72
2024/02/03 04:05:54;;;;;;;13.05;11.65;;;;;;;7.70;83.68;99222.31;5072876;28;20037;-71
2024/02/03 04:08:19;;;;;;;14.63;11.35;;;;;;;7.67;84.64;99228.06;5066112;28;20434;-71
2024/02/03 04:10:45;;;;;;;14.18;11.10;;;;;;;7.58;84.06;99224.72;5073969;28;20059;-71
2024/02/03 04:13:10;;;;;;;14.45;10.98;;;;;;;7.58;84.79;99226.59;5072379;28;20017;-72
2024/02/03 04:15:36;;;;;;;12.63;10.60;;;;;;;7.62;84.19;99230.53;5055669;28;20065;-73
2024/02/03 04:18:03;;;;;;;13.50;11.35;;;;;;;7.61;84.45;99218.13;5037270;28;20039;-72
2024/02/03 04:20:28;;;;;;;12.65;10.73;;;;;;;7.55;84.48;99218.94;5075419;28;20036;-72
2024/02/03 04:22:53;;;;;;;12.90;10.63;;;;;;;7.57;84.18;99216.88;5072808;28;20035;-72
2024/02/03 04:25:19;;;;;;;13.60;10.07;;;;;;;7.60;84.29;99221.84;5074123;28;20551;-72
2024/02/03 04:27:44;;;;;;;15.52;10.85;;;;;;;7.66;83.91;99216.50;5073918;28;20033;-72
2024/02/03 04:30:10;;;;;;;13.68;10.00;;;;;;;7.50;83.53;99208.00;5067077;28;20044;-72
2024/02/03 04:32:35;;;;;;;11.77;9.35;;;;;;;7.64;83.26;99223.94;5073611;28;20073;-72
2024/02/03 04:35:01;;;;;;;12.10;9.70;;;;;;;7.62;83.52;99215.28;5072762;28;20040;-72
2024/02/03 04:37:26;;;;;;;10.45;8.98;;;;;;;7.59;83.22;99198.75;5073567;28;20108;-72
2024/02/03 04:39:51;;;;;;;12.63;9.85;;;;;;;7.54;83.58;99198.50;5073618;28;20381;-72
2024/02/03 04:42:17;;;;;;;10.63;9.40;;;;;;;7.69;83.66;99212.59;5073366;28;20033;-72
2024/02/03 04:44:42;;;;;;;10.95;9.48;;;;;;;7.60;83.45;99197.72;5073267;28;20029;-72
2024/02/03 04:47:08;;;;;;;10.35;9.35;;;;;;;7.71;83.10;99212.41;5072080;28;20484;-70
2024/02/03 04:49:33;;;;;;;11.68;9.20;;;;;;;7.63;83.83;99205.38;5072701;28;20032;-70
2024/02/03 04:52:01;;;;;;;9.63;8.63;;;;;;;7.70;82.98;99202.72;5071864;28;20021;-70
2024/02/03 04:54:27;;;;;;;10.50;8.25;;;;;;;7.64;83.56;99207.03;5064355;28;20043;-70
2024/02/03 04:56:53;;;;;;;12.20;9.48;;;;;;;7.68;83.60;99211.78;5072477;28;21419;-70
2024/02/03 04:59:18;;;;;;;8.98;8.00;;;;;;;7.71;83.00;99213.22;5071528;28;20060;-70
2024/02/03 05:01:46;;;;;;;9.38;8.27;;;;;;;7.74;82.96;99203.97;5072669;28;20040;-70
2024/02/03 05:04:12;;;;;;;9.02;7.93;;;;;;;7.71;83.71;99205.19;5071350;28;20507;-69
2024/02/03 05:06:37;;;;;;;8.93;7.60;;;;;;;7.74;83.07;99212.84;5072586;28;20107;-71
2024/02/03 05:09:03;;;;;;;9.45;8.35;;;;;;;7.79;82.57;99215.75;5072536;28;20039;-71
2024/02/03 05:11:29;;;;;;;9.82;8.68;;;;;;;7.79;82.62;99209.56;5071295;28;20094;-70
2024/02/03 05:13:54;;;;;;;9.90;8.35;;;;;;;7.73;82.83;99213.84;5071958;28;20095;-70
2024/02/03 05:16:19;;;;;;;9.63;7.18;;;;;;;7.72;83.46;99212.22;5070788;28;20020;-71
2024/02/03 05:18:45;;;;;;;15.98;12.98;;;;;;;7.71;83.51;99229.31;5071512;28;20117;-71
2024/02/03 05:21:10;;;;;;;30.42;27.40;;;;;;;7.64;83.33;99220.41;5072162;28;20021;-71
2024/02/03 05:23:35;;;;;;;12.02;10.73;;;;;;;7.75;83.65;99227.88;5070714;28;20040;-70
2024/02/03 05:26:02;;;;;;;9.90;8.80;;;;;;;7.73;83.74;99232.63;5071853;28;20794;-68
2024/02/03 05:28:27;;;;;;;7.00;6.30;;;;;;;7.65;84.46;99228.25;5072616;28;20358;-69
2024/02/03 05:30:53;;;;;;;8.35;7.40;;;;;;;7.70;84.13;99230.38;5072243;28;20058;-69
2024/02/03 05:33:19;;;;;;;8.60;6.93;;;;;;;7.69;83.97;99236.75;5071886;28;20068;-69
2024/02/03 05:35:44;;;;;;;7.60;6.90;;;;;;;7.71;84.39;99233.84;5052215;28;20035;-68
2024/02/03 05:38:10;;;;;;;8.75;7.95;;;;;;;7.68;84.24;99235.06;5070865;28;20072;-68
2024/02/03 05:40:38;;;;;;;9.68;8.77;;;;;;;7.51;84.98;99212.34;5070625;28;20032;-68
2024/02/03 05:43:03;;;;;;;9.20;7.93;;;;;;;7.61;84.66;99239.56;5071658;28;20032;-69
2024/02/03 05:45:29;;;;;;;9.25;7.40;;;;;;;7.57;85.52;99224.94;5072067;28;20032;-69
2024/02/03 05:47:54;;;;;;;7.07;6.35;;;;;;;7.54;85.01;99228.84;5072046;28;20440;-69
2024/02/03 05:50:20;;;;;;;8.43;7.05;;;;;;;7.64;84.80;99231.16;5054387;28;20107;-69
2024/02/03 05:52:45;;;;;;;7.47;6.70;;;;;;;7.58;85.03;99230.06;5071524;28;20044;-71
2024/02/03 05:55:11;;;;;;;6.60;6.00;;;;;;;7.62;84.81;99235.88;5072102;28;20043;-70
2024/02/03 05:57:50;;;;;;;7.10;6.40;;;;;;;7.61;84.71;99234.22;5070068;28;20032;-70
2024/02/03 06:00:16;;;;;;;10.40;8.13;;;;;;;7.14;85.13;99159.19;5071864;28;20124;-71
2024/02/03 06:02:41;;;;;;;8.20;7.40;;;;;;;7.59;85.83;99230.91;5068660;28;20100;-70
2024/02/03 06:05:07;;;;;;;7.43;6.72;;;;;;;7.62;85.66;99235.88;5067711;28;20048;-69
2024/02/03 06:07:32;;;;;;;7.32;6.63;;;;;;;7.64;85.55;99228.47;5071392;28;20032;-69
2024/02/03 06:09:58;;;;;;;7.05;6.28;;;;;;;7.62;85.01;99225.16;5064129;28;20032;-69
2024/02/03 06:12:23;;;;;;;5.82;5.30;;;;;;;7.66;85.28;99237.13;5071196;28;20028;-69
2024/02/03 06:14:48;;;;;;;5.70;5.10;;;;;;;7.65;85.38;99240.84;5071667;28;20041;-69
2024/02/03 06:17:14;;;;;;;6.05;5.20;;;;;;;7.67;84.99;99236.13;5071564;28;20100;-69
2024/02/03 06:19:39;;;;;;;5.72;5.10;;;;;;;7.51;84.79;99215.03;5071420;28;20041;-69
2024/02/03 06:22:05;;;;;;;5.82;5.13;;;;;;;7.59;85.46;99241.63;5070304;28;20086;-69
2024/02/03 06:24:31;;;;;;;6.93;5.32;;;;;;;7.42;85.02;99235.78;5071242;28;20480;-70
2024/02/03 06:26:56;;;;;;;5.22;4.72;;;;;;;7.59;85.44;99247.00;5071010;28;20078;-70
2024/02/03 06:29:22;;;;;;;5.78;5.28;;;;;;;7.60;85.53;99254.03;5069771;28;20028;-69
2024/02/03 06:31:47;;;;;;;6.03;5.47;;;;;;;7.54;85.88;99249.44;5074722;28;20609;-69
2024/02/03 06:34:12;;;;;;;6.72;5.65;;;;;;;7.52;86.02;99246.13;5075127;28;20040;-70
2024/02/03 06:36:38;;;;;;;6.78;6.07;;;;;;;7.44;87.13;99254.38;5072582;28;20029;-69
2024/02/03 06:39:03;;;;;;;7.18;6.43;;;;;;;7.39;87.39;99256.81;5075228;28;20039;-69
2024/02/03 06:41:29;;;;;;;7.80;6.72;;;;;;;7.39;87.96;99259.47;5073732;28;20028;-70
2024/02/03 06:43:54;;;;;;;7.57;6.78;;;;;;;7.29;88.47;99253.66;5072011;28;20064;-70
2024/02/03 06:46:20;;;;;;;7.13;6.43;;;;;;;7.31;88.09;99249.75;5075340;28;20023;-70
2024/02/03 06:51:54;;;;;;;7.45;6.72;;;;;;;7.22;89.31;99244.75;5073961;28;20047;-69
2024/02/03 06:54:19;;;;;;;7.85;7.05;;;;;;;7.18;89.46;99248.84;5057038;28;20043;-71
2024/02/03 06:57:08;;;;;;;7.65;6.68;;;;;;;7.17;88.90;99239.97;5075323;28;20036;-70
2024/02/03 06:59:34;;;;;;;6.97;6.25;;;;;;;7.10;89.72;99240.94;5070880;28;20032;-70
2024/02/03 07:01:59;;;;;;;7.03;6.30;;;;;;;7.15;89.32;99238.50;5068661;28;20441;-72
2024/02/03 07:04:24;;;;;;;7.25;6.55;;;;;;;7.10;89.26;99232.91;5073369;28;20117;-72
2024/02/03 07:06:50;;;;;;;7.00;6.30;;;;;;;7.14;89.34;99242.22;5074458;28;20027;-71
2024/02/03 07:09:15;;;;;;;7.57;6.28;;;;;;;6.98;89.89;99201.34;5074582;28;20123;-71
2024/02/03 07:11:41;;;;;;;6.35;5.70;;;;;;;7.20;89.08;99225.38;5074615;28;20028;-71
2024/02/03 07:14:06;;;;;;;6.18;5.57;;;;;;;7.22;89.05;99223.31;5073951;28;20074;-73
2024/02/03 07:16:31;;;;;;;5.57;4.70;;;;;;;7.24;88.59;99223.94;5074929;28;20025;-72
2024/02/03 07:18:57;;;;;;;5.47;4.97;;;;;;;7.28;88.16;99219.84;5074336;28;20036;-71
2024/02/03 07:21:22;;;;;;;5.20;4.53;;;;;;;7.26;87.22;99220.03;5074544;28;20028;-73
2024/02/03 07:23:49;;;;;;;4.78;4.35;;;;;;;7.35;88.06;99239.47;5073005;28;20041;-72
2024/02/03 07:26:15;;;;;;;4.72;4.07;;;;;;;7.36;87.08;99230.41;5074406;28;20043;-73
2024/02/03 07:28:40;;;;;;;7.25;6.10;;;;;;;7.35;87.52;99232.25;5074390;28;20033;-72
2024/02/03 07:31:06;;;;;;;16.73;12.02;;;;;;;7.39;86.23;99230.00;5074380;28;20032;-71
2024/02/03 07:33:31;;;;;;;6.03;5.43;;;;;;;7.47;86.20;99232.50;5074192;28;20077;-70
2024/02/03 07:36:15;;;;;;;9.88;7.65;;;;;;;7.46;86.35;99220.16;5070778;28;20034;-72
2024/02/03 07:38:40;;;;;;;8.55;5.47;;;;;;;7.44;85.37;99232.91;5072985;28;20028;-72
2024/02/03 07:41:05;;;;;;;4.35;3.70;;;;;;;7.51;85.37;99223.06;5073344;28;20020;-72
2024/02/03 07:43:31;;;;;;;5.95;4.97;;;;;;;7.58;85.07;99229.28;5073264;28;20480;-73
2024/02/03 07:45:56;;;;;;;13.60;9.13;;;;;;;7.50;84.55;99234.78;5073921;28;20028;-72
2024/02/03 07:48:22;;;;;;;6.13;5.32;;;;;;;7.60;84.65;99227.22;5072966;28;20451;-73
2024/02/03 07:50:47;;;;;;;3.70;3.40;;;;;;;7.59;84.36;99225.56;5072721;28;20017;-72
2024/02/03 07:53:12;;;;;;;4.88;2.95;;;;;;;7.53;84.10;99204.91;5056594;28;20048;-74
2024/02/03 07:55:38;;;;;;;3.45;3.13;;;;;;;7.66;83.92;99215.69;5074209;28;20055;-73
2024/02/03 07:58:03;;;;;;;4.30;3.90;;;;;;;7.62;83.50;99193.00;5073840;28;20036;-73
2024/02/03 08:00:29;;;;;;;4.40;4.00;;;;;;;7.70;84.23;99213.44;5073747;28;20659;-74
2024/02/03 08:02:54;;;;;;;3.35;3.05;;;;;;;7.57;84.06;99187.41;5072310;28;20040;-73
2024/02/03 08:05:19;;;;;;;4.30;3.40;;;;;;;7.63;83.45;99183.94;5069107;28;20554;-73
2024/02/03 08:07:45;;;;;;;3.72;2.90;;;;;;;7.71;83.31;99202.50;5072249;28;20082;-73
2024/02/03 08:10:11;;;;;;;3.38;3.08;;;;;;;7.71;84.41;99202.50;5072374;28;20464;-73
2024/02/03 08:12:36;;;;;;;3.60;3.30;;;;;;;7.68;83.97;99202.91;5073236;28;20047;-73
2024/02/03 08:15:02;;;;;;;3.50;3.20;;;;;;;7.68;84.49;99209.09;5072508;28;20029;-72
2024/02/03 08:17:27;;;;;;;3.60;3.30;;;;;;;7.72;83.92;99206.84;5073244;28;20488;-71
2024/02/03 08:19:52;;;;;;;5.45;3.15;;;;;;;7.73;84.21;99213.84;5073252;28;20107;-71
2024/02/03 08:22:18;;;;;;;3.42;3.00;;;;;;;7.79;84.56;99206.88;5073236;28;20488;-70
2024/02/03 08:24:44;;;;;;;3.53;3.20;;;;;;;7.68;83.80;99198.38;5068841;28;20016;-69
2024/02/03 08:27:09;;;;;;;3.47;3.10;;;;;;;7.85;83.25;99220.28;5067857;28;20142;-71
2024/02/03 08:29:34;;;;;;;4.03;3.20;;;;;;;7.74;84.28;99217.38;5066971;28;20523;-73
2024/02/03 08:32:00;;;;;;;3.80;3.50;;;;;;;7.82;83.60;99219.88;5061980;28;20040;-70
2024/02/03 08:34:25;;;;;;;3.72;3.20;;;;;;;7.82;83.71;99220.69;5069200;28;20075;-70
2024/02/03 08:36:51;;;;;;;3.05;2.85;;;;;;;7.84;84.37;99218.63;5066235;28;20491;-71
2024/02/03 08:39:16;;;;;;;4.57;3.15;;;;;;;7.92;83.21;99221.13;5072233;28;20074;-71
2024/02/03 08:41:42;;;;;;;3.75;3.45;;;;;;;7.85;83.61;99198.84;5070227;28;20040;-71
2024/02/03 08:44:07;;;;;;;2.97;2.60;;;;;;;7.90;83.81;99208.94;5072179;28;20031;-72
2024/02/03 08:46:33;;;;;;;2.88;2.67;;;;;;;7.93;82.67;99200.50;5072235;28;20446;-71
2024/02/03 08:48:58;;;;;;;2.80;2.60;;;;;;;7.96;83.04;99206.28;5070015;28;20021;-71
2024/02/03 08:51:23;;;;;;;2.60;2.40;;;;;;;7.93;83.06;99212.06;5072488;28;20066;-71
2024/02/03 08:53:49;;;;;;;2.47;2.28;;;;;;;7.85;83.25;99181.91;5071376;28;20031;-71
2024/02/03 08:56:14;;;;;;;2.58;2.38;;;;;;;8.01;82.35;99209.19;5071486;28;20131;-70
2024/02/03 08:58:39;;;;;;;6.13;4.63;;;;;;;8.09;82.32;99200.13;5071385;28;20036;-71
2024/02/03 09:01:05;;;;;;;2.53;2.33;;;;;;;8.05;82.78;99210.44;5072585;28;20036;-72
2024/02/03 09:03:30;;;;;;;2.60;2.40;;;;;;;8.13;82.29;99212.94;5070946;28;20365;-71
2024/02/03 09:05:56;;;;;;;3.92;2.42;;;;;;;8.18;82.17;99221.19;5067545;28;20037;-70
2024/02/03 09:08:21;;;;;;;2.80;2.00;;;;;;;8.20;82.27;99218.31;5073630;28;20024;-71
2024/02/03 09:10:47;;;;;;;2.72;2.20;;;;;;;8.21;82.02;99219.97;5072216;28;20047;-70
2024/02/03 09:13:12;;;;;;;2.67;2.20;;;;;;;8.24;82.10;99215.00;5067245;28;20037;-70
2024/02/03 09:15:38;;;;;;;2.75;2.00;;;;;;;8.23;81.41;99208.00;5069741;28;20032;-71
2024/02/03 09:18:03;;;;;;;2.33;2.13;;;;;;;8.13;81.56;99201.38;5071771;28;20024;-70
2024/02/03 09:20:29;;;;;;;2.53;1.85;;;;;;;8.26;81.49;99223.72;5072300;28;20119;-70
2024/02/03 09:22:54;;;;;;;2.17;1.70;;;;;;;8.19;81.11;99201.38;5071801;28;20052;-70
2024/02/03 09:25:19;;;;;;;2.33;2.10;;;;;;;8.24;81.45;99215.00;5072308;28;20082;-70
2024/02/03 09:27:45;;;;;;;2.17;1.92;;;;;;;8.32;81.15;99228.28;5072273;28;20029;-70
2024/02/03 09:30:11;;;;;;;3.50;2.15;;;;;;;8.39;81.20;99216.72;5072499;28;20054;-70
2024/02/03 09:32:37;;;;;;;2.40;2.20;;;;;;;8.35;81.23;99206.38;5071780;28;20021;-71
2024/02/03 09:35:02;;;;;;;2.47;1.90;;;;;;;8.37;80.95;99224.13;5071984;28;20038;-71
2024/02/03 09:37:27;;;;;;;2.10;1.90;;;;;;;8.42;80.83;99224.34;5072082;28;20024;-72
2024/02/03 09:39:53;;;;;;;2.20;2.00;;;;;;;8.41;81.21;99220.00;5071901;28;20053;-71
2024/02/03 09:42:19;;;;;;;4.50;2.35;;;;;;;8.31;81.38;99218.56;5071599;28;20115;-70
2024/02/03 09:44:45;;;;;;;2.67;2.40;;;;;;;8.42;81.00;99221.66;5070653;28;20036;-69
2024/02/03 09:47:14;;;;;;;3.33;2.20;;;;;;;8.51;80.67;99225.81;5070695;28;20028;-71
2024/02/03 09:49:39;;;;;;;2.30;2.10;;;;;;;8.46;81.36;99217.53;5069644;28;20032;-70
2024/02/03 09:52:05;;;;;;;2.30;2.10;;;;;;;8.55;80.96;99213.63;5071598;28;20078;-70
2024/02/03 09:54:31;;;;;;;171.93;42.38;;;;;;;8.36;81.34;99193.78;5067712;28;20421;-70
2024/02/03 09:56:56;;;;;;;31.55;9.88;;;;;;;8.52;81.16;99206.78;5079165;28;20028;-71
2024/02/03 09:59:22;;;;;;;8.15;3.72;;;;;;;8.49;81.40;99212.59;5070635;28;20040;-71
2024/02/03 10:01:48;;;;;;;2.83;2.10;;;;;;;8.55;80.85;99218.97;5071780;28;20035;-71
2024/02/03 10:04:13;;;;;;;3.65;3.10;;;;;;;8.52;80.91;99219.41;5071936;28;20055;-70
2024/02/03 10:06:44;;;;;;;2.00;1.90;;;;;;;8.52;80.79;99217.53;5069904;28;20027;-71
2024/02/03 10:09:22;;;;;;;3.05;2.30;;;;;;;8.50;80.86;99218.78;5070261;28;20060;-71
2024/02/03 10:11:48;;;;;;;2.75;2.00;;;;;;;8.63;80.99;99234.91;5070206;28;20024;-70
2024/02/03 10:14:15;;;;;;;2.40;2.10;;;;;;;8.58;80.92;99205.16;5071234;28;20369;-71
2024/02/03 10:16:49;;;;;;;2.25;2.05;;;;;;;8.74;80.74;99224.38;5070160;28;20086;-73
2024/02/03 10:19:14;;;;;;;2.08;1.90;;;;;;;8.75;80.79;99230.56;5070282;28;20036;-70
2024/02/03 10:21:40;;;;;;;2.40;2.20;;;;;;;8.64;80.81;99220.44;5045238;28;20020;-70
2024/02/03 10:24:06;;;;;;;1.90;1.70;;;;;;;8.51;80.90;99210.53;5051003;28;20044;-72
2024/02/03 10:26:31;;;;;;;1.90;1.80;;;;;;;8.68;80.72;99224.38;5070201;28;20390;-72
2024/02/03 10:28:57;;;;;;;1.92;1.83;;;;;;;8.67;80.62;99211.97;5071284;28;20037;-71
2024/02/03 10:31:23;;;;;;;2.20;2.10;;;;;;;8.71;80.87;99223.94;5070133;28;20103;-72
2024/02/03 10:33:49;;;;;;;2.75;1.70;;;;;;;8.82;80.39;99229.50;5070924;28;20036;-72
2024/02/03 10:36:14;;;;;;;1.92;1.70;;;;;;;8.83;80.59;99204.31;5070036;28;20073;-72
2024/02/03 10:38:41;;;;;;;2.10;1.83;;;;;;;8.79;80.37;99207.63;5071174;28;20040;-71
2024/02/03 10:41:09;;;;;;;3.03;1.70;;;;;;;8.90;80.49;99213.19;5070090;28;20468;-72
2024/02/03 10:43:37;;;;;;;2.80;2.00;;;;;;;8.96;80.17;99215.03;5069830;28;20072;-72
2024/02/03 10:46:05;;;;;;;2.10;1.95;;;;;;;8.73;80.29;99195.84;5069939;28;20028;-72
2024/02/03 10:48:33;;;;;;;2.05;1.90;;;;;;;8.86;80.24;99192.34;5053401;28;20028;-71
2024/02/03 10:51:02;;;;;;;2.42;2.00;;;;;;;8.93;80.12;99209.25;5070070;28;20021;-71
2024/02/03 10:53:56;;;;;;;1.90;1.80;;;;;;;8.97;80.31;99215.88;5069471;28;20111;-70
2024/02/03 10:56:23;;;;;;;2.40;2.10;;;;;;;8.99;80.30;99213.78;5067144;28;20040;-70
2024/02/03 10:58:49;;;;;;;2.97;1.98;;;;;;;8.96;80.11;99208.84;5069782;28;20104;-71
2024/02/03 11:01:17;;;;;;;2.00;1.80;;;;;;;8.97;80.13;99214.00;5069872;28;20067;-71
2024/02/03 11:03:42;;;;;;;2.30;1.60;;;;;;;9.02;80.25;99213.38;5069312;28;20051;-72
2024/02/03 11:06:08;;;;;;;2.45;1.98;;;;;;;8.98;80.05;99202.22;5069613;28;20492;-71
2024/02/03 11:08:34;;;;;;;4.75;1.90;;;;;;;9.01;79.93;99206.34;5062428;28;20032;-72
2024/02/03 11:10:59;;;;;;;2.28;2.00;;;;;;;8.98;80.07;99204.91;5069694;28;20551;-70
2024/02/03 11:13:27;;;;;;;2.97;2.53;;;;;;;8.87;80.14;99194.78;5070560;28;20532;-70
2024/02/03 11:15:57;;;;;;;3.03;2.30;;;;;;;8.88;80.00;99179.50;5070818;28;20043;-70
2024/02/03 11:21:28;;;;;;;4.38;2.30;;;;;;;8.96;80.36;99203.47;5069870;28;20519;-70
2024/02/03 11:23:53;;;;;;;2.40;1.83;;;;;;;9.00;80.23;99215.44;5064908;28;20391;-70
2024/02/03 11:26:18;;;;;;;2.97;2.50;;;;;;;8.99;80.41;99213.78;5070210;28;20123;-71
2024/02/03 11:28:44;;;;;;;2.72;1.90;;;;;;;9.03;80.28;99205.09;5073355;28;20023;-72
2024/02/03 11:31:09;;;;;;;1.88;1.77;;;;;;;8.93;80.54;99187.78;5075163;28;20531;-71
2024/02/03 11:33:48;;;;;;;2.10;1.90;;;;;;;9.02;80.38;99208.00;5056000;28;20028;-72